createdAt,value
2022-08-28T00:00:14.052Z,79.34
2022-08-28T00:02:40.971Z,78.04
2022-08-28T00:05:09.298Z,77.87
2022-08-28T00:07:36.036Z,77.82
2022-08-28T00:10:05.764Z,78.33
2022-08-28T00:12:32.375Z,78.48
2022-08-28T00:14:59.493Z,78.99
2022-08-28T00:17:25.944Z,78.19
2022-08-28T00:19:52.404Z,78.00
2022-08-28T00:22:19.081Z,78.93
2022-08-28T00:24:45.753Z,78.22
2022-08-28T00:27:30.688Z,79.62
2022-08-28T00:29:57.148Z,79.20
2022-08-28T00:32:25.165Z,77.92
2022-08-28T00:34:52.299Z,79.07
2022-08-28T00:37:19.023Z,79.09
2022-08-28T00:39:46.366Z,80.33
2022-08-28T00:42:13.787Z,79.53
2022-08-28T00:44:40.549Z,79.60
2022-08-28T00:47:07.084Z,78.45
2022-08-28T00:49:37.506Z,80.31
2022-08-28T00:52:08.665Z,80.26
2022-08-28T00:55:03.126Z,79.75
2022-08-28T00:57:40.862Z,79.32
2022-08-28T01:00:13.707Z,79.32
2022-08-28T01:02:40.496Z,79.80
2022-08-28T01:05:09.654Z,79.05
2022-08-28T01:07:38.068Z,79.46
2022-08-28T01:10:09.587Z,78.93
2022-08-28T01:12:36.133Z,78.56
2022-08-28T01:15:14.128Z,79.70
2022-08-28T01:17:46.415Z,79.26
2022-08-28T01:20:17.337Z,79.08
2022-08-28T01:23:21.414Z,78.36
2022-08-28T01:25:47.946Z,78.50
2022-08-28T01:28:14.636Z,79.31
2022-08-28T01:30:44.938Z,78.14
2022-08-28T01:33:12.090Z,79.15
2022-08-28T01:35:41.673Z,78.77
2022-08-28T01:38:08.196Z,78.21
2022-08-28T01:40:39.542Z,78.79
2022-08-28T01:43:19.251Z,78.11
2022-08-28T01:45:49.173Z,80.26
2022-08-28T01:48:16.576Z,79.77
2022-08-28T01:50:43.552Z,78.56
2022-08-28T01:53:14.515Z,78.68
2022-08-28T01:55:42.549Z,78.97
2022-08-28T01:58:10.714Z,80.35
2022-08-28T02:00:38.716Z,79.88
2022-08-28T02:03:06.932Z,78.78
2022-08-28T02:05:35.120Z,79.73
2022-08-28T02:08:03.875Z,80.73
2022-08-28T02:10:32.603Z,79.65
2022-08-28T02:13:00.112Z,80.38
2022-08-28T02:15:29.349Z,80.13
2022-08-28T02:17:56.054Z,80.96
2022-08-28T02:20:24.079Z,82.06
2022-08-28T02:22:50.804Z,80.36
2022-08-28T02:25:18.754Z,81.61
2022-08-28T02:27:46.084Z,80.90
2022-08-28T02:30:14.675Z,81.13
2022-08-28T02:32:41.222Z,81.75
2022-08-28T02:35:12.217Z,80.70
2022-08-28T02:37:39.703Z,81.32
2022-08-28T02:40:10.878Z,82.02
2022-08-28T02:42:37.450Z,81.88
2022-08-28T02:45:04.275Z,82.09
2022-08-28T02:47:31.807Z,82.42
2022-08-28T02:49:58.367Z,82.16
2022-08-28T02:52:24.852Z,81.22
2022-08-28T02:54:51.338Z,81.26
2022-08-28T02:57:17.848Z,81.92
2022-08-28T02:59:44.570Z,82.93
2022-08-28T03:02:11.289Z,82.55
2022-08-28T03:04:38.093Z,82.45
2022-08-28T03:07:07.361Z,82.50
2022-08-28T03:09:33.960Z,83.56
2022-08-28T03:12:00.552Z,83.08
2022-08-28T03:14:27.758Z,82.63
2022-08-28T03:16:54.331Z,83.63
2022-08-28T03:19:20.851Z,83.00
2022-08-28T03:21:47.600Z,82.20
2022-08-28T03:24:15.148Z,82.96
2022-08-28T03:26:42.382Z,82.91
2022-08-28T03:29:08.852Z,83.49
2022-08-28T03:31:36.324Z,82.59
2022-08-28T03:34:02.921Z,82.64
2022-08-28T03:36:29.844Z,83.14
2022-08-28T03:38:59.309Z,82.30
2022-08-28T03:41:29.070Z,83.57
2022-08-28T03:44:00.635Z,83.63
2022-08-28T03:46:29.305Z,83.50
2022-08-28T03:48:55.844Z,83.81
2022-08-28T03:51:29.663Z,83.29
2022-08-28T03:53:58.469Z,82.77
2022-08-28T03:56:27.311Z,83.97
2022-08-28T03:58:57.443Z,84.31
2022-08-28T04:01:24.166Z,83.67
2022-08-28T04:03:50.714Z,83.70
2022-08-28T04:06:17.529Z,84.90
2022-08-28T04:08:43.972Z,84.52
2022-08-28T04:11:10.743Z,84.43
2022-08-28T04:13:37.287Z,84.81
2022-08-28T04:16:10.594Z,85.95
2022-08-28T04:18:39.916Z,85.58
2022-08-28T04:21:12.937Z,85.94
2022-08-28T04:23:43.214Z,85.15
2022-08-28T04:26:15.490Z,85.57
2022-08-28T04:28:42.112Z,85.23
2022-08-28T04:31:09.064Z,85.29
2022-08-28T04:33:36.450Z,86.07
2022-08-28T04:36:15.383Z,85.95
2022-08-28T04:38:44.141Z,86.84
2022-08-28T04:41:14.008Z,86.20
2022-08-28T04:43:41.065Z,86.28
2022-08-28T04:46:11.398Z,87.33
2022-08-28T04:48:38.852Z,86.56
2022-08-28T04:51:06.845Z,86.91
2022-08-28T04:53:33.338Z,86.52
2022-08-28T04:56:00.608Z,87.80
2022-08-28T04:58:27.733Z,87.35
2022-08-28T05:00:55.101Z,88.12
2022-08-28T05:03:22.221Z,87.36
2022-08-28T05:05:52.586Z,87.63
2022-08-28T05:08:22.524Z,87.30
2022-08-28T05:10:50.780Z,87.82
2022-08-28T05:13:18.479Z,87.19
2022-08-28T05:15:47.727Z,88.23
2022-08-28T05:18:16.019Z,87.35
2022-08-28T05:20:46.493Z,87.19
2022-08-28T05:23:14.757Z,87.75
2022-08-28T05:25:44.559Z,89.15
2022-08-28T05:28:12.630Z,86.62
2022-08-28T05:30:40.587Z,87.91
2022-08-28T05:33:08.470Z,88.55
2022-08-28T05:35:38.275Z,87.64
2022-08-28T05:38:05.494Z,88.48
2022-08-28T05:40:32.073Z,88.73
2022-08-28T05:42:58.611Z,89.92
2022-08-28T05:45:25.330Z,88.57
2022-08-28T05:47:52.147Z,88.15
2022-08-28T05:50:19.144Z,88.99
2022-08-28T05:52:45.672Z,89.75
2022-08-28T05:55:13.168Z,89.15
2022-08-28T05:57:40.611Z,89.06
2022-08-28T06:00:13.412Z,89.65
2022-08-28T06:02:44.380Z,89.10
2022-08-28T06:05:13.061Z,89.82
2022-08-28T06:07:41.065Z,89.80
2022-08-28T06:10:08.004Z,89.27
2022-08-28T06:12:37.592Z,89.00
2022-08-28T06:15:05.538Z,87.94
2022-08-28T06:17:32.003Z,89.26
2022-08-28T06:19:58.466Z,88.32
2022-08-28T06:22:24.910Z,88.38
2022-08-28T06:24:51.374Z,88.57
2022-08-28T06:27:17.897Z,88.59
2022-08-28T06:29:44.727Z,88.92
2022-08-28T06:32:11.463Z,87.79
2022-08-28T06:34:38.031Z,86.81
2022-08-28T06:37:04.748Z,87.56
2022-08-28T06:39:31.219Z,89.03
2022-08-28T06:41:57.711Z,88.35
2022-08-28T06:44:24.268Z,89.21
2022-08-28T06:46:53.909Z,89.03
2022-08-28T06:49:20.863Z,88.89
2022-08-28T06:51:47.380Z,88.45
2022-08-28T06:54:21.169Z,88.24
2022-08-28T06:56:49.417Z,87.94
2022-08-28T06:59:15.943Z,88.36
2022-08-28T07:01:42.544Z,88.06
2022-08-28T07:04:11.468Z,88.21
2022-08-28T07:06:40.881Z,87.99
2022-08-28T07:09:11.109Z,86.92
2022-08-28T07:11:38.488Z,87.91
2022-08-28T07:14:05.310Z,88.91
2022-08-28T07:16:35.082Z,88.00
2022-08-28T07:19:04.468Z,87.91
2022-08-28T07:21:33.262Z,87.35
2022-08-28T07:24:05.112Z,88.99
2022-08-28T07:26:31.973Z,86.52
2022-08-28T07:29:09.928Z,86.83
2022-08-28T07:31:41.743Z,86.21
2022-08-28T07:34:10.935Z,84.58
2022-08-28T07:36:38.456Z,84.06
2022-08-28T07:39:06.040Z,84.51
2022-08-28T07:41:35.634Z,85.55
2022-08-28T07:44:21.492Z,84.15
2022-08-28T07:46:48.124Z,83.86
2022-08-28T07:49:18.425Z,83.82
2022-08-28T07:51:47.041Z,85.16
2022-08-28T07:54:17.983Z,85.32
2022-08-28T07:56:46.151Z,83.64
2022-08-28T07:59:16.649Z,83.42
2022-08-28T08:01:47.005Z,83.76
2022-08-28T08:04:15.982Z,83.76
2022-08-28T08:06:45.838Z,84.22
2022-08-28T08:09:16.009Z,84.84
2022-08-28T08:11:43.045Z,82.37
2022-08-28T08:14:10.880Z,84.46
2022-08-28T08:16:43.414Z,84.80
2022-08-28T08:19:13.987Z,83.47
2022-08-28T08:21:46.826Z,84.23
2022-08-28T08:24:21.197Z,82.97
2022-08-28T08:26:58.846Z,83.13
2022-08-28T08:29:33.161Z,82.56
2022-08-28T08:32:06.017Z,82.26
2022-08-28T08:34:36.452Z,81.32
2022-08-28T08:37:03.305Z,82.64
2022-08-28T08:39:31.784Z,81.04
2022-08-28T08:42:02.750Z,80.31
2022-08-28T08:44:34.010Z,80.43
2022-08-28T08:47:38.785Z,79.84
2022-08-28T08:50:19.497Z,80.02
2022-08-28T08:52:49.522Z,80.19
2022-08-28T08:55:32.162Z,80.50
2022-08-28T08:58:11.336Z,79.69
2022-08-28T09:00:50.427Z,79.70
2022-08-28T09:03:27.687Z,80.39
2022-08-28T09:06:00.429Z,78.15
2022-08-28T09:08:34.170Z,78.12
2022-08-28T09:11:18.169Z,79.58
2022-08-28T09:14:02.619Z,79.23
2022-08-28T09:16:33.147Z,78.65
2022-08-28T09:19:03.281Z,79.32
2022-08-28T09:21:42.959Z,80.00
2022-08-28T09:24:19.849Z,78.79
2022-08-28T09:27:27.088Z,79.23
2022-08-28T09:30:00.008Z,78.94
2022-08-28T09:32:57.872Z,76.92
2022-08-28T09:35:24.268Z,78.31
2022-08-28T09:37:51.456Z,78.24
2022-08-28T09:40:47.107Z,78.66
2022-08-28T09:43:27.525Z,78.34
2022-08-28T09:46:01.461Z,77.17
2022-08-28T09:48:43.477Z,77.73
2022-08-28T09:51:26.783Z,74.29
2022-08-28T09:53:56.415Z,71.89
2022-08-28T09:56:35.023Z,73.41
2022-08-28T09:59:13.995Z,73.66
2022-08-28T10:01:46.810Z,73.45
2022-08-28T10:04:44.384Z,74.01
2022-08-28T10:07:24.203Z,74.04
2022-08-28T10:10:06.446Z,72.61
2022-08-28T10:12:47.303Z,71.83
2022-08-28T10:15:43.508Z,72.17
2022-08-28T10:18:49.255Z,73.05
2022-08-28T10:21:35.705Z,71.32
2022-08-28T10:24:37.821Z,71.25
2022-08-28T10:27:17.186Z,69.16
2022-08-28T10:29:52.729Z,70.10
2022-08-28T10:32:28.208Z,68.36
2022-08-28T10:35:03.643Z,69.58
2022-08-28T10:37:30.609Z,70.27
2022-08-28T10:40:00.467Z,68.79
2022-08-28T10:42:39.255Z,67.15
2022-08-28T10:45:14.035Z,65.62
2022-08-28T10:47:45.780Z,65.76
2022-08-28T10:50:22.423Z,66.21
2022-08-28T10:52:55.721Z,66.41
2022-08-28T10:55:27.584Z,65.02
2022-08-28T10:57:59.931Z,63.00
2022-08-28T11:00:28.521Z,63.83
2022-08-28T11:02:59.383Z,66.91
2022-08-28T11:05:32.849Z,65.88
2022-08-28T11:08:05.117Z,63.72
2022-08-28T11:10:38.326Z,64.53
2022-08-28T11:13:08.431Z,63.00
2022-08-28T11:15:37.480Z,61.37
2022-08-28T11:18:16.354Z,62.38
2022-08-28T11:20:55.561Z,64.13
2022-08-28T11:23:30.076Z,64.42
2022-08-28T11:26:02.269Z,60.92
2022-08-28T11:28:34.655Z,61.63
2022-08-28T11:31:01.076Z,60.40
2022-08-28T11:33:43.917Z,58.47
2022-08-28T11:36:17.984Z,57.83
2022-08-28T11:38:44.734Z,57.47
2022-08-28T11:41:22.724Z,58.17
2022-08-28T11:44:13.807Z,59.28
2022-08-28T11:46:42.059Z,58.17
2022-08-28T11:49:24.701Z,56.97
2022-08-28T11:52:01.734Z,56.84
2022-08-28T11:55:03.600Z,56.11
2022-08-28T12:00:55.739Z,59.24
2022-08-28T12:03:40.810Z,60.13
2022-08-28T12:06:08.978Z,58.73
2022-08-28T12:08:44.652Z,56.69
2022-08-28T12:11:40.281Z,57.73
2022-08-28T12:14:13.484Z,55.21
2022-08-28T12:16:58.298Z,54.58
2022-08-28T12:19:51.225Z,55.93
2022-08-28T12:22:26.394Z,53.23
2022-08-28T12:24:57.992Z,55.56
2022-08-28T12:27:25.533Z,53.40
2022-08-28T12:29:55.651Z,53.18
2022-08-28T12:32:57.529Z,53.84
2022-08-28T12:35:29.593Z,56.15
2022-08-28T12:37:57.266Z,53.13
2022-08-28T12:40:27.373Z,53.95
2022-08-28T12:43:05.349Z,50.58
2022-08-28T12:45:49.794Z,51.71
2022-08-28T12:48:21.942Z,51.01
2022-08-28T12:50:56.157Z,50.07
2022-08-28T12:53:25.395Z,50.39
2022-08-28T12:55:53.500Z,49.78
2022-08-28T12:58:35.165Z,48.97
2022-08-28T13:01:12.911Z,47.04
2022-08-28T13:04:04.377Z,46.76
2022-08-28T13:06:30.953Z,45.86
2022-08-28T13:09:00.782Z,45.35
2022-08-28T13:11:40.174Z,46.53
2022-08-28T13:14:08.445Z,47.37
2022-08-28T13:16:43.681Z,45.80
2022-08-28T13:19:27.009Z,46.33
2022-08-28T13:22:00.591Z,45.09
2022-08-28T13:24:27.355Z,44.60
2022-08-28T13:27:03.257Z,46.05
2022-08-28T13:29:30.843Z,44.35
2022-08-28T13:32:00.232Z,44.58
2022-08-28T13:34:29.461Z,44.42
2022-08-28T13:37:01.884Z,45.36
2022-08-28T13:39:32.776Z,45.57
2022-08-28T13:42:07.475Z,45.59
2022-08-28T13:44:36.527Z,46.22
2022-08-28T13:47:06.795Z,45.75
2022-08-28T13:49:34.964Z,47.33
2022-08-28T13:52:05.436Z,47.10
2022-08-28T13:54:32.204Z,47.10
2022-08-28T13:57:01.180Z,47.50
2022-08-28T13:59:28.823Z,48.14
2022-08-28T14:02:17.664Z,46.24
2022-08-28T14:04:44.951Z,46.23
2022-08-28T14:07:13.324Z,47.25
2022-08-28T14:09:40.771Z,46.88
2022-08-28T14:12:09.819Z,48.79
2022-08-28T14:14:37.776Z,47.18
2022-08-28T14:17:05.517Z,48.86
2022-08-28T14:19:32.145Z,48.65
2022-08-28T14:21:59.842Z,48.64
2022-08-28T14:24:27.313Z,49.03
2022-08-28T14:26:54.356Z,49.41
2022-08-28T14:29:21.458Z,47.54
2022-08-28T14:31:48.268Z,46.11
2022-08-28T14:34:18.565Z,47.71
2022-08-28T14:36:46.149Z,46.97
2022-08-28T14:39:13.783Z,48.50
2022-08-28T14:41:46.764Z,49.32
2022-08-28T14:44:13.726Z,46.42
2022-08-28T14:46:44.360Z,46.75
2022-08-28T14:49:15.252Z,47.37
2022-08-28T14:51:43.785Z,46.06
2022-08-28T14:54:12.377Z,46.33
2022-08-28T14:56:39.031Z,47.41
2022-08-28T14:59:07.802Z,46.61
2022-08-28T15:01:40.812Z,46.92
2022-08-28T15:04:11.457Z,46.59
2022-08-28T15:06:39.163Z,46.20
2022-08-28T15:09:05.747Z,45.51
2022-08-28T15:11:32.345Z,45.73
2022-08-28T15:13:58.804Z,46.66
2022-08-28T15:16:30.371Z,48.30
2022-08-28T15:18:58.435Z,47.91
2022-08-28T15:21:38.288Z,47.16
2022-08-28T15:24:06.059Z,47.51
2022-08-28T15:26:32.716Z,48.52
2022-08-28T15:29:03.207Z,46.95
2022-08-28T15:31:31.566Z,46.95
2022-08-28T15:33:58.952Z,46.91
2022-08-28T15:36:25.463Z,46.80
2022-08-28T15:39:10.430Z,45.76
2022-08-28T15:41:37.976Z,45.69
2022-08-28T15:44:05.283Z,44.89
2022-08-28T15:46:34.737Z,46.61
2022-08-28T15:49:03.845Z,47.06
2022-08-28T15:51:35.024Z,47.77
2022-08-28T15:54:02.755Z,46.24
2022-08-28T15:56:29.267Z,44.50
2022-08-28T15:58:55.787Z,45.44
2022-08-28T16:01:22.579Z,45.83
2022-08-28T16:03:49.292Z,45.81
2022-08-28T16:06:18.692Z,45.02
2022-08-28T16:08:45.883Z,46.33
2022-08-28T16:11:19.190Z,45.03
2022-08-28T16:13:46.448Z,45.42
2022-08-28T16:16:12.993Z,44.48
2022-08-28T16:18:39.783Z,43.99
2022-08-28T16:21:06.895Z,44.06
2022-08-28T16:23:33.906Z,43.77
2022-08-28T16:26:01.856Z,44.56
2022-08-28T16:28:28.486Z,46.95
2022-08-28T16:30:55.134Z,43.56
2022-08-28T16:33:22.277Z,43.69
2022-08-28T16:35:51.617Z,43.70
2022-08-28T16:38:22.752Z,43.95
2022-08-28T16:40:49.440Z,43.64
2022-08-28T16:43:16.165Z,43.65
2022-08-28T16:45:44.889Z,45.62
2022-08-28T16:48:14.097Z,46.11
2022-08-28T16:50:43.012Z,44.04
2022-08-28T16:53:10.337Z,44.82
2022-08-28T16:55:38.310Z,45.07
2022-08-28T16:58:05.299Z,46.30
2022-08-28T17:00:31.829Z,44.52
2022-08-28T17:02:58.489Z,44.57
2022-08-28T17:05:25.231Z,45.26
2022-08-28T17:07:52.028Z,46.08
2022-08-28T17:10:21.439Z,45.00
2022-08-28T17:12:47.974Z,46.71
2022-08-28T17:15:14.829Z,44.51
2022-08-28T17:17:42.539Z,46.14
2022-08-28T17:20:30.308Z,46.65
2022-08-28T17:22:56.875Z,46.25
2022-08-28T17:25:24.077Z,44.48
2022-08-28T17:27:50.972Z,46.12
2022-08-28T17:30:19.174Z,44.61
2022-08-28T17:32:46.513Z,46.23
2022-08-28T17:35:13.496Z,44.52
2022-08-28T17:37:40.749Z,45.97
2022-08-28T17:40:09.896Z,46.09
2022-08-28T17:42:36.549Z,46.26
2022-08-28T17:45:06.486Z,45.47
2022-08-28T17:47:33.025Z,47.94
2022-08-28T17:50:01.261Z,45.91
2022-08-28T17:52:29.447Z,47.36
2022-08-28T17:54:56.132Z,48.19
2022-08-28T17:57:24.171Z,47.43
2022-08-28T17:59:50.992Z,48.52
2022-08-28T18:02:17.788Z,49.01
2022-08-28T18:04:44.459Z,47.50
2022-08-28T18:07:11.256Z,47.49
2022-08-28T18:09:40.221Z,48.28
2022-08-28T18:12:12.192Z,48.77
2022-08-28T18:14:40.378Z,48.81
2022-08-28T18:17:09.152Z,49.60
2022-08-28T18:19:36.819Z,49.50
2022-08-28T18:22:03.337Z,48.31
2022-08-28T18:24:30.995Z,49.86
2022-08-28T18:26:58.756Z,49.43
2022-08-28T18:29:25.243Z,48.79
2022-08-28T18:31:52.052Z,48.93
2022-08-28T18:34:18.632Z,49.21
2022-08-28T18:36:45.180Z,49.43
2022-08-28T18:39:11.787Z,48.43
2022-08-28T18:41:43.871Z,49.71
2022-08-28T18:44:11.722Z,49.90
2022-08-28T18:46:38.458Z,50.57
2022-08-28T18:49:05.008Z,50.84
2022-08-28T18:51:32.649Z,49.54
2022-08-28T18:54:04.380Z,50.19
2022-08-28T18:56:33.621Z,50.77
2022-08-28T18:59:02.019Z,51.54
2022-08-28T19:01:28.614Z,52.25
2022-08-28T19:03:55.838Z,50.55
2022-08-28T19:06:22.764Z,52.64
2022-08-28T19:08:49.357Z,51.92
2022-08-28T19:11:16.343Z,52.02
2022-08-28T19:13:43.622Z,52.32
2022-08-28T19:16:12.519Z,52.08
2022-08-28T19:18:39.095Z,52.04
2022-08-28T19:21:07.999Z,52.72
2022-08-28T19:23:35.347Z,51.78
2022-08-28T19:26:02.443Z,52.35
2022-08-28T19:28:29.026Z,53.39
2022-08-28T19:30:55.674Z,53.17
2022-08-28T19:33:22.431Z,52.53
2022-08-28T19:35:50.062Z,52.97
2022-08-28T19:38:16.737Z,52.42
2022-08-28T19:40:45.431Z,53.83
2022-08-28T19:43:16.546Z,53.66
2022-08-28T19:45:44.868Z,52.83
2022-08-28T19:48:12.135Z,53.41
2022-08-28T19:50:39.169Z,53.45
2022-08-28T19:53:05.879Z,53.90
2022-08-28T19:55:32.710Z,53.90
2022-08-28T19:57:59.447Z,53.99
2022-08-28T20:00:32.903Z,54.46
2022-08-28T20:02:59.712Z,54.57
2022-08-28T20:05:26.278Z,53.52
2022-08-28T20:07:53.292Z,54.25
2022-08-28T20:10:21.328Z,54.17
2022-08-28T20:12:48.745Z,55.28
2022-08-28T20:15:17.623Z,53.71
2022-08-28T20:17:50.156Z,53.67
2022-08-28T20:20:23.702Z,54.44
2022-08-28T20:22:53.933Z,54.73
2022-08-28T20:25:20.896Z,54.63
2022-08-28T20:27:47.363Z,54.57
2022-08-28T20:30:16.173Z,54.77
2022-08-28T20:32:42.812Z,55.57
2022-08-28T20:35:11.576Z,55.47
2022-08-28T20:37:41.042Z,56.32
2022-08-28T20:40:16.688Z,56.51
2022-08-28T20:42:44.035Z,55.87
2022-08-28T20:45:11.000Z,55.07
2022-08-28T20:47:37.534Z,56.27
2022-08-28T20:50:04.434Z,57.47
2022-08-28T20:52:30.931Z,56.89
2022-08-28T20:54:58.087Z,58.69
2022-08-28T20:57:24.767Z,57.56
2022-08-28T20:59:52.262Z,56.96
2022-08-28T21:02:22.679Z,57.36
2022-08-28T21:04:49.772Z,57.39
2022-08-28T21:07:18.478Z,57.75
2022-08-28T21:10:05.087Z,57.65
2022-08-28T21:12:33.567Z,58.76
2022-08-28T21:15:00.243Z,58.68
2022-08-28T21:17:29.739Z,57.89
2022-08-28T21:19:59.008Z,58.02
2022-08-28T21:22:25.585Z,58.67
2022-08-28T21:24:52.221Z,58.65
2022-08-28T21:27:18.835Z,59.61
2022-08-28T21:29:46.085Z,59.58
2022-08-28T21:32:12.905Z,59.21
2022-08-28T21:34:39.727Z,60.20
2022-08-28T21:37:06.565Z,61.13
2022-08-28T21:39:33.660Z,60.78
2022-08-28T21:42:00.235Z,61.00
2022-08-28T21:44:26.734Z,61.72
2022-08-28T21:46:53.276Z,62.35
2022-08-28T21:49:22.593Z,62.41
2022-08-28T21:51:49.301Z,62.83
2022-08-28T21:54:15.982Z,63.30
2022-08-28T21:56:42.693Z,62.95
2022-08-28T21:59:09.197Z,63.78
2022-08-28T22:01:35.796Z,64.33
2022-08-28T22:04:02.888Z,64.00
2022-08-28T22:06:29.713Z,64.95
2022-08-28T22:08:57.458Z,65.71
2022-08-28T22:11:24.841Z,64.77
2022-08-28T22:13:52.184Z,65.06
2022-08-28T22:16:19.292Z,66.18
2022-08-28T22:18:45.928Z,65.25
2022-08-28T22:21:33.185Z,65.53
2022-08-28T22:23:59.903Z,65.02
2022-08-28T22:26:27.045Z,65.10
2022-08-28T22:28:53.627Z,64.81
2022-08-28T22:31:20.949Z,65.52
2022-08-28T22:33:47.424Z,64.97
2022-08-28T22:36:13.911Z,65.24
2022-08-28T22:38:41.225Z,65.74
2022-08-28T22:41:13.535Z,65.25
2022-08-28T22:43:40.005Z,65.23
2022-08-28T22:46:08.868Z,66.30
2022-08-28T22:48:35.648Z,65.16
2022-08-28T22:51:09.793Z,65.50
2022-08-28T22:53:36.732Z,65.40
2022-08-28T22:56:04.276Z,65.57
2022-08-28T22:58:32.671Z,66.62
2022-08-28T23:01:01.843Z,66.06
2022-08-28T23:03:28.648Z,65.98
2022-08-28T23:05:55.223Z,66.23
2022-08-28T23:08:21.696Z,66.39
2022-08-28T23:10:58.879Z,66.30
2022-08-28T23:13:25.950Z,66.65
2022-08-28T23:15:52.532Z,67.03
2022-08-28T23:18:19.055Z,67.24
2022-08-28T23:20:45.574Z,67.02
2022-08-28T23:23:12.764Z,67.37
2022-08-28T23:25:39.799Z,67.22
2022-08-28T23:28:06.743Z,67.46
2022-08-28T23:30:33.410Z,67.35
2022-08-28T23:32:59.946Z,67.90
2022-08-28T23:35:26.561Z,68.26
2022-08-28T23:37:53.082Z,68.98
2022-08-28T23:40:22.474Z,69.77
2022-08-28T23:42:49.259Z,70.85
2022-08-28T23:45:17.493Z,69.90
2022-08-28T23:47:45.303Z,70.94
2022-08-28T23:50:18.276Z,70.04
2022-08-28T23:52:45.264Z,71.03
2022-08-28T23:55:13.536Z,71.09
2022-08-28T23:57:40.097Z,70.48
